sensor_id;sensor_type;location;lat;lon;timestamp;pressure;altitude;pressure_sealevel;temperature;humidity
6395;BME280;3230;42.588;23.358;2023-05-16T00:01:10;90801.84;;;12.29;100.00
6395;BME280;3230;42.588;23.358;2023-05-16T00:03:37;90802.91;;;12.28;100.00
6395;BME280;3230;42.588;23.358;2023-05-16T00:06:02;90806.53;;;12.32;100.00
6395;BME280;3230;42.588;23.358;2023-05-16T00:08:29;90809.13;;;12.19;100.00
6395;BME280;3230;42.588;23.358;2023-05-16T00:10:55;90796.78;;;12.19;100.00
6395;BME280;3230;42.588;23.358;2023-05-16T00:13:20;90792.06;;;12.02;100.00
6395;BME280;3230;42.588;23.358;2023-05-16T00:15:52;90788.34;;;12.03;100.00
6395;BME280;3230;42.588;23.358;2023-05-16T00:18:19;90790.84;;;11.94;100.00
6395;BME280;3230;42.588;23.358;2023-05-16T00:20:49;90784.00;;;11.79;100.00
6395;BME280;3230;42.588;23.358;2023-05-16T00:23:16;90789.16;;;11.84;100.00
6395;BME280;3230;42.588;23.358;2023-05-16T00:25:41;90790.63;;;11.91;100.00
6395;BME280;3230;42.588;23.358;2023-05-16T00:28:06;90792.16;;;11.78;100.00
6395;BME280;3230;42.588;23.358;2023-05-16T00:30:33;90789.06;;;11.90;100.00
6395;BME280;3230;42.588;23.358;2023-05-16T00:32:59;90795.38;;;12.08;100.00
6395;BME280;3230;42.588;23.358;2023-05-16T00:35:24;90796.06;;;12.13;100.00
6395;BME280;3230;42.588;23.358;2023-05-16T00:37:50;90793.53;;;12.08;100.00
6395;BME280;3230;42.588;23.358;2023-05-16T00:40:15;90788.09;;;12.05;100.00
6395;BME280;3230;42.588;23.358;2023-05-16T00:42:41;90780.34;;;11.94;100.00
6395;BME280;3230;42.588;23.358;2023-05-16T00:45:07;90779.00;;;11.97;100.00
6395;BME280;3230;42.588;23.358;2023-05-16T00:47:33;90767.75;;;12.10;100.00
6395;BME280;3230;42.588;23.358;2023-05-16T00:49:58;90760.97;;;12.23;100.00
6395;BME280;3230;42.588;23.358;2023-05-16T00:52:24;90763.91;;;12.22;100.00
6395;BME280;3230;42.588;23.358;2023-05-16T00:54:51;90766.84;;;12.34;100.00
6395;BME280;3230;42.588;23.358;2023-05-16T00:57:16;90776.59;;;12.47;100.00
6395;BME280;3230;42.588;23.358;2023-05-16T00:59:44;90759.66;;;12.40;100.00
6395;BME280;3230;42.588;23.358;2023-05-16T01:02:10;90769.56;;;12.43;100.00
6395;BME280;3230;42.588;23.358;2023-05-16T01:04:37;90765.78;;;12.49;100.00
6395;BME280;3230;42.588;23.358;2023-05-16T01:07:03;90766.94;;;12.43;100.00
6395;BME280;3230;42.588;23.358;2023-05-16T01:09:28;90759.06;;;12.29;100.00
6395;BME280;3230;42.588;23.358;2023-05-16T01:12:04;90760.13;;;12.28;100.00
6395;BME280;3230;42.588;23.358;2023-05-16T01:14:55;90765.72;;;12.21;100.00
6395;BME280;3230;42.588;23.358;2023-05-16T01:26:17;90759.13;;;11.91;100.00
6395;BME280;3230;42.588;23.358;2023-05-16T01:28:44;90748.56;;;11.96;100.00
6395;BME280;3230;42.588;23.358;2023-05-16T01:31:11;90737.69;;;12.03;100.00
6395;BME280;3230;42.588;23.358;2023-05-16T01:33:36;90735.69;;;12.13;100.00
6395;BME280;3230;42.588;23.358;2023-05-16T01:36:11;90736.56;;;12.23;100.00
6395;BME280;3230;42.588;23.358;2023-05-16T01:38:53;90723.81;;;12.16;100.00
6395;BME280;3230;42.588;23.358;2023-05-16T01:41:29;90727.31;;;12.25;100.00
6395;BME280;3230;42.588;23.358;2023-05-16T01:44:04;90719.16;;;12.27;100.00
6395;BME280;3230;42.588;23.358;2023-05-16T01:46:37;90720.81;;;12.23;100.00
6395;BME280;3230;42.588;23.358;2023-05-16T01:51:44;90704.84;;;12.61;100.00
6395;BME280;3230;42.588;23.358;2023-05-16T01:54:16;90710.06;;;12.75;100.00
6395;BME280;3230;42.588;23.358;2023-05-16T01:56:46;90708.81;;;12.72;100.00
6395;BME280;3230;42.588;23.358;2023-05-16T01:59:16;90710.97;;;12.70;100.00
6395;BME280;3230;42.588;23.358;2023-05-16T02:01:41;90708.63;;;12.83;100.00
6395;BME280;3230;42.588;23.358;2023-05-16T02:04:07;90705.72;;;12.70;100.00
6395;BME280;3230;42.588;23.358;2023-05-16T02:06:33;90701.53;;;12.69;100.00
6395;BME280;3230;42.588;23.358;2023-05-16T02:08:59;90704.53;;;12.62;100.00
6395;BME280;3230;42.588;23.358;2023-05-16T02:11:24;90688.59;;;12.59;100.00
6395;BME280;3230;42.588;23.358;2023-05-16T02:13:50;90693.84;;;12.59;100.00
6395;BME280;3230;42.588;23.358;2023-05-16T02:16:15;90703.09;;;12.56;100.00
6395;BME280;3230;42.588;23.358;2023-05-16T02:18:40;90680.44;;;12.32;100.00
6395;BME280;3230;42.588;23.358;2023-05-16T02:21:06;90691.59;;;12.38;100.00
6395;BME280;3230;42.588;23.358;2023-05-16T02:23:31;90695.41;;;12.32;100.00
6395;BME280;3230;42.588;23.358;2023-05-16T02:25:57;90683.53;;;12.35;100.00
6395;BME280;3230;42.588;23.358;2023-05-16T02:28:22;90687.72;;;12.63;100.00
6395;BME280;3230;42.588;23.358;2023-05-16T02:30:58;90690.31;;;12.77;100.00
6395;BME280;3230;42.588;23.358;2023-05-16T02:33:27;90690.22;;;12.83;100.00
6395;BME280;3230;42.588;23.358;2023-05-16T02:35:54;90703.38;;;12.83;100.00
6395;BME280;3230;42.588;23.358;2023-05-16T02:38:19;90695.00;;;12.80;100.00
6395;BME280;3230;42.588;23.358;2023-05-16T02:40:46;90707.63;;;12.78;100.00
6395;BME280;3230;42.588;23.358;2023-05-16T02:43:12;90701.81;;;12.82;100.00
6395;BME280;3230;42.588;23.358;2023-05-16T02:45:37;90688.53;;;12.87;100.00
6395;BME280;3230;42.588;23.358;2023-05-16T02:48:03;90696.88;;;13.03;100.00
6395;BME280;3230;42.588;23.358;2023-05-16T02:50:28;90700.19;;;13.08;100.00
6395;BME280;3230;42.588;23.358;2023-05-16T02:52:54;90682.28;;;13.10;100.00
6395;BME280;3230;42.588;23.358;2023-05-16T02:55:19;90678.66;;;13.06;100.00
6395;BME280;3230;42.588;23.358;2023-05-16T02:57:45;90685.22;;;12.95;100.00
6395;BME280;3230;42.588;23.358;2023-05-16T03:00:11;90690.06;;;13.02;100.00
6395;BME280;3230;42.588;23.358;2023-05-16T03:02:36;90683.81;;;13.11;100.00
6395;BME280;3230;42.588;23.358;2023-05-16T03:05:02;90687.63;;;13.05;100.00
6395;BME280;3230;42.588;23.358;2023-05-16T03:07:29;90683.81;;;13.11;100.00
6395;BME280;3230;42.588;23.358;2023-05-16T03:09:54;90686.94;;;13.14;100.00
6395;BME280;3230;42.588;23.358;2023-05-16T03:12:20;90680.59;;;13.15;100.00
6395;BME280;3230;42.588;23.358;2023-05-16T03:14:45;90693.50;;;13.25;100.00
6395;BME280;3230;42.588;23.358;2023-05-16T03:17:11;90693.50;;;13.25;100.00
6395;BME280;3230;42.588;23.358;2023-05-16T03:19:36;90696.50;;;13.32;100.00
6395;BME280;3230;42.588;23.358;2023-05-16T03:22:02;90687.53;;;13.33;100.00
6395;BME280;3230;42.588;23.358;2023-05-16T03:24:28;90684.78;;;13.16;100.00
6395;BME280;3230;42.588;23.358;2023-05-16T03:26:53;90695.50;;;13.19;100.00
6395;BME280;3230;42.588;23.358;2023-05-16T03:29:19;90686.56;;;13.06;100.00
6395;BME280;3230;42.588;23.358;2023-05-16T03:31:44;90675.50;;;13.18;100.00
6395;BME280;3230;42.588;23.358;2023-05-16T03:34:10;90679.19;;;13.31;100.00
6395;BME280;3230;42.588;23.358;2023-05-16T03:36:37;90687.97;;;13.26;100.00
6395;BME280;3230;42.588;23.358;2023-05-16T03:39:02;90693.63;;;13.20;100.00
6395;BME280;3230;42.588;23.358;2023-05-16T03:41:28;90671.69;;;13.24;100.00
6395;BME280;3230;42.588;23.358;2023-05-16T03:43:53;90674.75;;;13.18;100.00
6395;BME280;3230;42.588;23.358;2023-05-16T03:46:19;90679.28;;;13.26;100.00
6395;BME280;3230;42.588;23.358;2023-05-16T03:48:44;90674.56;;;13.37;100.00
6395;BME280;3230;42.588;23.358;2023-05-16T03:51:09;90685.06;;;13.51;100.00
6395;BME280;3230;42.588;23.358;2023-05-16T03:53:36;90688.16;;;13.53;100.00
6395;BME280;3230;42.588;23.358;2023-05-16T03:56:01;90696.19;;;13.48;100.00
6395;BME280;3230;42.588;23.358;2023-05-16T03:58:28;90689.19;;;13.43;100.00
6395;BME280;3230;42.588;23.358;2023-05-16T04:00:53;90694.19;;;13.45;100.00
6395;BME280;3230;42.588;23.358;2023-05-16T04:03:19;90682.09;;;13.43;100.00
6395;BME280;3230;42.588;23.358;2023-05-16T04:05:44;90688.84;;;13.58;100.00
6395;BME280;3230;42.588;23.358;2023-05-16T04:08:10;90690.69;;;13.58;100.00
6395;BME280;3230;42.588;23.358;2023-05-16T04:10:36;90700.63;;;13.61;100.00
6395;BME280;3230;42.588;23.358;2023-05-16T04:13:01;90707.94;;;13.64;100.00
6395;BME280;3230;42.588;23.358;2023-05-16T04:15:26;90710.78;;;13.77;100.00
6395;BME280;3230;42.588;23.358;2023-05-16T04:17:52;90710.78;;;13.77;100.00
6395;BME280;3230;42.588;23.358;2023-05-16T04:20:17;90707.84;;;13.78;100.00
6395;BME280;3230;42.588;23.358;2023-05-16T04:22:43;90697.50;;;13.59;100.00
6395;BME280;3230;42.588;23.358;2023-05-16T04:25:09;90716.81;;;13.77;100.00
6395;BME280;3230;42.588;23.358;2023-05-16T04:27:35;90703.25;;;13.61;100.00
6395;BME280;3230;42.588;23.358;2023-05-16T04:30:01;90702.00;;;13.58;100.00
6395;BME280;3230;42.588;23.358;2023-05-16T04:32:26;90703.97;;;13.53;100.00
6395;BME280;3230;42.588;23.358;2023-05-16T04:34:53;90692.50;;;13.49;100.00
6395;BME280;3230;42.588;23.358;2023-05-16T04:37:18;90694.94;;;13.68;100.00
6395;BME280;3230;42.588;23.358;2023-05-16T04:39:44;90693.38;;;13.67;100.00
6395;BME280;3230;42.588;23.358;2023-05-16T04:42:10;90700.38;;;13.71;100.00
6395;BME280;3230;42.588;23.358;2023-05-16T04:44:36;90696.16;;;13.62;100.00
6395;BME280;3230;42.588;23.358;2023-05-16T04:47:01;90703.25;;;13.61;100.00
6395;BME280;3230;42.588;23.358;2023-05-16T04:49:30;90699.19;;;13.55;100.00
6395;BME280;3230;42.588;23.358;2023-05-16T04:51:55;90690.03;;;13.52;100.00
6395;BME280;3230;42.588;23.358;2023-05-16T04:54:21;90705.41;;;13.59;100.00
6395;BME280;3230;42.588;23.358;2023-05-16T04:56:46;90696.78;;;13.67;100.00
6395;BME280;3230;42.588;23.358;2023-05-16T04:59:11;90698.22;;;13.73;100.00
6395;BME280;3230;42.588;23.358;2023-05-16T05:01:37;90698.22;;;13.73;100.00
6395;BME280;3230;42.588;23.358;2023-05-16T05:04:03;90691.38;;;13.72;100.00
6395;BME280;3230;42.588;23.358;2023-05-16T05:06:28;90693.03;;;13.82;100.00
6395;BME280;3230;42.588;23.358;2023-05-16T05:08:54;90704.28;;;13.74;100.00
6395;BME280;3230;42.588;23.358;2023-05-16T05:11:19;90702.53;;;13.69;100.00
6395;BME280;3230;42.588;23.358;2023-05-16T05:13:45;90700.66;;;13.70;100.00
6395;BME280;3230;42.588;23.358;2023-05-16T05:16:11;90706.00;;;13.56;100.00
6395;BME280;3230;42.588;23.358;2023-05-16T05:18:37;90698.59;;;13.58;100.00
6395;BME280;3230;42.588;23.358;2023-05-16T05:21:03;90704.69;;;13.67;100.00
6395;BME280;3230;42.588;23.358;2023-05-16T05:23:28;90704.09;;;13.70;100.00
6395;BME280;3230;42.588;23.358;2023-05-16T05:25:54;90700.81;;;13.65;100.00
6395;BME280;3230;42.588;23.358;2023-05-16T05:28:19;90699.41;;;13.67;100.00
6395;BME280;3230;42.588;23.358;2023-05-16T05:30:45;90695.47;;;13.79;100.00
6395;BME280;3230;42.588;23.358;2023-05-16T05:33:14;90696.91;;;13.62;100.00
6395;BME280;3230;42.588;23.358;2023-05-16T05:35:40;90689.25;;;13.74;100.00
6395;BME280;3230;42.588;23.358;2023-05-16T05:38:06;90684.59;;;13.71;100.00
6395;BME280;3230;42.588;23.358;2023-05-16T05:40:31;90683.50;;;13.72;100.00
6395;BME280;3230;42.588;23.358;2023-05-16T05:42:56;90675.00;;;13.75;100.00
6395;BME280;3230;42.588;23.358;2023-05-16T05:45:22;90681.03;;;13.76;100.00
6395;BME280;3230;42.588;23.358;2023-05-16T05:47:47;90669.81;;;13.93;100.00
6395;BME280;3230;42.588;23.358;2023-05-16T05:50:13;90684.41;;;13.99;100.00
6395;BME280;3230;42.588;23.358;2023-05-16T05:52:39;90682.25;;;14.01;100.00
6395;BME280;3230;42.588;23.358;2023-05-16T05:55:05;90672.81;;;14.00;100.00
6395;BME280;3230;42.588;23.358;2023-05-16T05:57:31;90675.53;;;14.18;98.86
6395;BME280;3230;42.588;23.358;2023-05-16T05:59:56;90680.53;;;14.28;97.48
6395;BME280;3230;42.588;23.358;2023-05-16T06:02:21;90678.97;;;14.27;98.15
6395;BME280;3230;42.588;23.358;2023-05-16T06:04:47;90680.44;;;14.42;98.19
6395;BME280;3230;42.588;23.358;2023-05-16T06:07:12;90678.22;;;14.35;100.00
6395;BME280;3230;42.588;23.358;2023-05-16T06:09:40;90684.22;;;14.27;100.00
6395;BME280;3230;42.588;23.358;2023-05-16T06:12:06;90687.75;;;14.14;100.00
6395;BME280;3230;42.588;23.358;2023-05-16T06:14:32;90685.72;;;14.11;100.00
6395;BME280;3230;42.588;23.358;2023-05-16T06:16:57;90681.94;;;14.03;100.00
6395;BME280;3230;42.588;23.358;2023-05-16T06:19:23;90683.81;;;14.02;100.00
6395;BME280;3230;42.588;23.358;2023-05-16T06:21:48;90689.81;;;13.94;100.00
6395;BME280;3230;42.588;23.358;2023-05-16T06:24:14;90697.03;;;14.11;100.00
6395;BME280;3230;42.588;23.358;2023-05-16T06:26:39;90703.69;;;14.08;100.00
6395;BME280;3230;42.588;23.358;2023-05-16T06:29:05;90695.13;;;14.03;100.00
6395;BME280;3230;42.588;23.358;2023-05-16T06:31:30;90702.13;;;14.07;100.00
6395;BME280;3230;42.588;23.358;2023-05-16T06:33:56;90696.63;;;14.18;100.00
6395;BME280;3230;42.588;23.358;2023-05-16T06:36:21;90698.34;;;14.22;99.42
6395;BME280;3230;42.588;23.358;2023-05-16T06:38:47;90703.69;;;14.49;97.21
6395;BME280;3230;42.588;23.358;2023-05-16T06:41:12;90708.19;;;14.39;97.66
6395;BME280;3230;42.588;23.358;2023-05-16T06:43:39;90702.28;;;14.43;98.03
6395;BME280;3230;42.588;23.358;2023-05-16T06:46:04;90699.66;;;14.43;98.17
6395;BME280;3230;42.588;23.358;2023-05-16T06:48:30;90701.41;;;14.56;96.58
6395;BME280;3230;42.588;23.358;2023-05-16T06:50:55;90691.00;;;14.51;97.98
6395;BME280;3230;42.588;23.358;2023-05-16T06:53:21;90679.53;;;14.55;96.77
6395;BME280;3230;42.588;23.358;2023-05-16T06:55:47;90689.19;;;14.60;96.40
6395;BME280;3230;42.588;23.358;2023-05-16T06:58:12;90686.44;;;14.65;96.01
6395;BME280;3230;42.588;23.358;2023-05-16T07:00:38;90686.03;;;14.49;97.96
6395;BME280;3230;42.588;23.358;2023-05-16T07:03:04;90696.78;;;14.62;97.03
6395;BME280;3230;42.588;23.358;2023-05-16T07:05:29;90690.63;;;14.66;96.57
6395;BME280;3230;42.588;23.358;2023-05-16T07:07:56;90699.94;;;14.73;96.30
6395;BME280;3230;42.588;23.358;2023-05-16T07:10:21;90690.09;;;14.64;96.32
6395;BME280;3230;42.588;23.358;2023-05-16T07:12:47;90693.97;;;14.58;97.02
6395;BME280;3230;42.588;23.358;2023-05-16T07:15:12;90682.81;;;14.61;96.79
6395;BME280;3230;42.588;23.358;2023-05-16T07:17:38;90665.91;;;14.62;96.08
6395;BME280;3230;42.588;23.358;2023-05-16T07:20:04;90655.72;;;14.69;96.16
6395;BME280;3230;42.588;23.358;2023-05-16T07:22:31;90664.81;;;14.63;96.67
6395;BME280;3230;42.588;23.358;2023-05-16T07:24:56;90670.78;;;14.86;94.72
6395;BME280;3230;42.588;23.358;2023-05-16T07:27:25;90653.25;;;14.82;95.08
6395;BME280;3230;42.588;23.358;2023-05-16T07:29:50;90655.13;;;14.90;95.10
6395;BME280;3230;42.588;23.358;2023-05-16T07:32:16;90669.75;;;15.14;94.50
6395;BME280;3230;42.588;23.358;2023-05-16T07:34:41;90671.13;;;15.02;95.09
6395;BME280;3230;42.588;23.358;2023-05-16T07:37:06;90678.28;;;15.11;94.17
6395;BME280;3230;42.588;23.358;2023-05-16T07:39:37;90667.44;;;15.21;93.22
6395;BME280;3230;42.588;23.358;2023-05-16T07:42:03;90686.97;;;15.20;95.62
6395;BME280;3230;42.588;23.358;2023-05-16T07:44:30;90685.41;;;15.37;93.30
6395;BME280;3230;42.588;23.358;2023-05-16T07:46:56;90682.63;;;15.24;92.93
6395;BME280;3230;42.588;23.358;2023-05-16T07:49:21;90685.59;;;15.31;94.60
6395;BME280;3230;42.588;23.358;2023-05-16T07:51:46;90670.66;;;15.27;94.66
6395;BME280;3230;42.588;23.358;2023-05-16T07:54:12;90672.06;;;15.33;95.56
6395;BME280;3230;42.588;23.358;2023-05-16T07:56:37;90677.34;;;15.42;93.32
6395;BME280;3230;42.588;23.358;2023-05-16T07:59:03;90683.88;;;15.35;95.62
6395;BME280;3230;42.588;23.358;2023-05-16T08:01:30;90684.34;;;15.29;94.94
6395;BME280;3230;42.588;23.358;2023-05-16T08:03:55;90671.78;;;15.43;94.26
6395;BME280;3230;42.588;23.358;2023-05-16T08:06:20;90662.91;;;15.39;96.14
6395;BME280;3230;42.588;23.358;2023-05-16T08:08:46;90666.78;;;15.59;95.22
6395;BME280;3230;42.588;23.358;2023-05-16T08:11:11;90666.47;;;15.52;94.94
6395;BME280;3230;42.588;23.358;2023-05-16T08:13:37;90653.72;;;15.72;93.63
6395;BME280;3230;42.588;23.358;2023-05-16T08:16:02;90662.28;;;15.69;93.67
6395;BME280;3230;42.588;23.358;2023-05-16T08:18:28;90657.25;;;15.76;93.52
6395;BME280;3230;42.588;23.358;2023-05-16T08:20:53;90658.34;;;15.92;93.11
6395;BME280;3230;42.588;23.358;2023-05-16T08:23:19;90661.03;;;15.83;92.64
6395;BME280;3230;42.588;23.358;2023-05-16T08:25:45;90660.72;;;16.33;89.92
6395;BME280;3230;42.588;23.358;2023-05-16T08:28:10;90671.66;;;16.22;91.43
6395;BME280;3230;42.588;23.358;2023-05-16T08:30:36;90670.09;;;16.21;91.78
6395;BME280;3230;42.588;23.358;2023-05-16T08:33:01;90669.97;;;16.47;89.99
6395;BME280;3230;42.588;23.358;2023-05-16T08:35:29;90665.97;;;16.41;90.81
6395;BME280;3230;42.588;23.358;2023-05-16T08:37:55;90672.81;;;16.42;90.78
6395;BME280;3230;42.588;23.358;2023-05-16T08:40:21;90662.47;;;16.58;89.14
6395;BME280;3230;42.588;23.358;2023-05-16T08:42:50;90654.25;;;16.81;89.26
6395;BME280;3230;42.588;23.358;2023-05-16T08:45:15;90664.03;;;16.89;90.77
6395;BME280;3230;42.588;23.358;2023-05-16T08:47:42;90658.78;;;17.32;87.31
6395;BME280;3230;42.588;23.358;2023-05-16T08:50:09;90648.19;;;17.53;86.51
6395;BME280;3230;42.588;23.358;2023-05-16T08:52:36;90660.91;;;17.93;85.11
6395;BME280;3230;42.588;23.358;2023-05-16T08:55:04;90671.38;;;18.23;84.49
6395;BME280;3230;42.588;23.358;2023-05-16T08:57:34;90660.44;;;18.25;84.03
6395;BME280;3230;42.588;23.358;2023-05-16T09:00:00;90666.00;;;18.44;84.09
6395;BME280;3230;42.588;23.358;2023-05-16T09:02:31;90673.72;;;18.25;82.40
6395;BME280;3230;42.588;23.358;2023-05-16T09:04:57;90655.81;;;18.34;83.25
6395;BME280;3230;42.588;23.358;2023-05-16T09:07:23;90656.47;;;17.85;84.30
6395;BME280;3230;42.588;23.358;2023-05-16T09:09:49;90647.13;;;18.00;83.77
6395;BME280;3230;42.588;23.358;2023-05-16T09:12:14;90652.63;;;18.28;81.36
6395;BME280;3230;42.588;23.358;2023-05-16T09:14:40;90649.63;;;18.17;83.90
6395;BME280;3230;42.588;23.358;2023-05-16T09:17:07;90652.56;;;18.03;85.35
6395;BME280;3230;42.588;23.358;2023-05-16T09:19:41;90659.22;;;17.88;84.68
6395;BME280;3230;42.588;23.358;2023-05-16T09:22:13;90661.88;;;17.88;85.74
6395;BME280;3230;42.588;23.358;2023-05-16T09:24:43;90659.97;;;17.77;86.06
6395;BME280;3230;42.588;23.358;2023-05-16T09:27:13;90659.03;;;17.60;86.33
6395;BME280;3230;42.588;23.358;2023-05-16T09:29:42;90656.28;;;17.69;86.99
6395;BME280;3230;42.588;23.358;2023-05-16T09:32:15;90656.34;;;17.81;86.12
6395;BME280;3230;42.588;23.358;2023-05-16T09:34:45;90652.75;;;17.65;85.91
6395;BME280;3230;42.588;23.358;2023-05-16T09:37:13;90653.56;;;17.44;87.96
6395;BME280;3230;42.588;23.358;2023-05-16T09:39:50;90644.00;;;17.31;89.10
6395;BME280;3230;42.588;23.358;2023-05-16T09:42:17;90651.34;;;17.46;87.26
6395;BME280;3230;42.588;23.358;2023-05-16T09:44:50;90661.03;;;17.42;88.51
6395;BME280;3230;42.588;23.358;2023-05-16T09:47:16;90661.28;;;17.49;86.97
6395;BME280;3230;42.588;23.358;2023-05-16T09:49:46;90626.28;;;17.43;88.68
6395;BME280;3230;42.588;23.358;2023-05-16T09:52:13;90643.81;;;17.69;86.92
6395;BME280;3230;42.588;23.358;2023-05-16T09:54:38;90653.03;;;17.84;86.54
6395;BME280;3230;42.588;23.358;2023-05-16T09:57:04;90640.75;;;18.13;86.42
6395;BME280;3230;42.588;23.358;2023-05-16T09:59:34;90650.22;;;18.02;85.62
6395;BME280;3230;42.588;23.358;2023-05-16T10:02:00;90646.09;;;18.26;84.66
6395;BME280;3230;42.588;23.358;2023-05-16T10:04:25;90651.19;;;18.31;84.26
6395;BME280;3230;42.588;23.358;2023-05-16T10:06:54;90652.16;;;18.26;83.95
6395;BME280;3230;42.588;23.358;2023-05-16T10:09:23;90657.03;;;18.36;83.92
6395;BME280;3230;42.588;23.358;2023-05-16T10:11:51;90654.53;;;18.52;84.27
6395;BME280;3230;42.588;23.358;2023-05-16T10:14:18;90663.34;;;18.81;81.81
6395;BME280;3230;42.588;23.358;2023-05-16T10:16:46;90655.81;;;19.08;82.83
6395;BME280;3230;42.588;23.358;2023-05-16T10:19:13;90660.09;;;19.38;82.91
6395;BME280;3230;42.588;23.358;2023-05-16T10:21:42;90641.00;;;19.20;82.34
6395;BME280;3230;42.588;23.358;2023-05-16T10:24:10;90646.72;;;19.34;82.68
6395;BME280;3230;42.588;23.358;2023-05-16T10:26:37;90636.06;;;19.46;82.93
6395;BME280;3230;42.588;23.358;2023-05-16T10:29:03;90630.75;;;19.46;81.88
6395;BME280;3230;42.588;23.358;2023-05-16T10:31:30;90635.06;;;19.39;83.38
6395;BME280;3230;42.588;23.358;2023-05-16T10:33:56;90626.22;;;19.34;83.46
6395;BME280;3230;42.588;23.358;2023-05-16T10:36:22;90621.53;;;19.03;84.72
6395;BME280;3230;42.588;23.358;2023-05-16T10:38:49;90623.50;;;19.18;84.72
6395;BME280;3230;42.588;23.358;2023-05-16T10:41:15;90608.91;;;19.12;85.17
6395;BME280;3230;42.588;23.358;2023-05-16T10:43:43;90605.28;;;19.45;85.85
6395;BME280;3230;42.588;23.358;2023-05-16T10:46:09;90608.59;;;19.42;83.15
6395;BME280;3230;42.588;23.358;2023-05-16T10:48:37;90608.25;;;19.72;82.92
6395;BME280;3230;42.588;23.358;2023-05-16T10:51:32;90606.44;;;19.89;81.74
6395;BME280;3230;42.588;23.358;2023-05-16T10:53:51;90614.53;;;20.08;80.48
6395;BME280;3230;42.588;23.358;2023-05-16T10:56:22;90612.19;;;19.91;79.67
6395;BME280;3230;42.588;23.358;2023-05-16T10:58:48;90617.59;;;20.10;81.65
6395;BME280;3230;42.588;23.358;2023-05-16T11:01:21;90613.16;;;20.15;78.87
6395;BME280;3230;42.588;23.358;2023-05-16T11:06:21;90614.44;;;19.89;80.77
6395;BME280;3230;42.588;23.358;2023-05-16T11:16:51;90614.50;;;19.92;81.63
6395;BME280;3230;42.588;23.358;2023-05-16T11:24:37;90629.22;;;20.34;80.01
6395;BME280;3230;42.588;23.358;2023-05-16T11:27:04;90623.38;;;20.60;80.24
6395;BME280;3230;42.588;23.358;2023-05-16T11:29:31;90608.69;;;20.67;80.87
6395;BME280;3230;42.588;23.358;2023-05-16T11:32:02;90612.88;;;20.68;77.74
6395;BME280;3230;42.588;23.358;2023-05-16T11:34:29;90623.88;;;20.66;72.48
6395;BME280;3230;42.588;23.358;2023-05-16T11:36:55;90616.16;;;20.61;73.82
6395;BME280;3230;42.588;23.358;2023-05-16T11:39:21;90635.16;;;20.75;71.79
6395;BME280;3230;42.588;23.358;2023-05-16T11:41:49;90632.25;;;20.33;71.92
6395;BME280;3230;42.588;23.358;2023-05-16T11:44:15;90613.56;;;20.01;74.03
6395;BME280;3230;42.588;23.358;2023-05-16T11:46:41;90613.38;;;19.65;74.98
6395;BME280;3230;42.588;23.358;2023-05-16T11:49:08;90615.75;;;19.54;78.06
6395;BME280;3230;42.588;23.358;2023-05-16T11:51:38;90614.16;;;19.65;78.66
6395;BME280;3230;42.588;23.358;2023-05-16T11:54:04;90612.81;;;20.00;76.87
6395;BME280;3230;42.588;23.358;2023-05-16T11:56:30;90604.22;;;20.07;77.02
6395;BME280;3230;42.588;23.358;2023-05-16T11:58:59;90598.31;;;20.29;76.82
6395;BME280;3230;42.588;23.358;2023-05-16T12:01:32;90594.44;;;20.59;76.37
6395;BME280;3230;42.588;23.358;2023-05-16T12:03:58;90594.25;;;20.84;74.66
6395;BME280;3230;42.588;23.358;2023-05-16T12:06:23;90589.56;;;20.45;74.62
6395;BME280;3230;42.588;23.358;2023-05-16T12:08:49;90585.06;;;20.65;75.44
6395;BME280;3230;42.588;23.358;2023-05-16T12:11:16;90600.56;;;20.75;74.91
6395;BME280;3230;42.588;23.358;2023-05-16T12:13:41;90592.97;;;20.93;76.18
6395;BME280;3230;42.588;23.358;2023-05-16T12:16:07;90589.75;;;21.23;76.46
6395;BME280;3230;42.588;23.358;2023-05-16T12:18:33;90594.88;;;21.13;74.86
6395;BME280;3230;42.588;23.358;2023-05-16T12:20:58;90590.81;;;21.38;75.95
6395;BME280;3230;42.588;23.358;2023-05-16T12:23:25;90600.28;;;21.16;74.80
6395;BME280;3230;42.588;23.358;2023-05-16T12:25:51;90577.91;;;21.01;77.63
6395;BME280;3230;42.588;23.358;2023-05-16T12:28:19;90577.97;;;21.05;77.61
6395;BME280;3230;42.588;23.358;2023-05-16T12:30:45;90577.16;;;20.69;78.37
6395;BME280;3230;42.588;23.358;2023-05-16T12:33:13;90575.84;;;20.43;78.67
6395;BME280;3230;42.588;23.358;2023-05-16T12:35:41;90574.56;;;20.21;79.71
6395;BME280;3230;42.588;23.358;2023-05-16T12:38:07;90581.44;;;20.22;80.40
6395;BME280;3230;42.588;23.358;2023-05-16T12:40:35;90572.66;;;20.05;81.16
6395;BME280;3230;42.588;23.358;2023-05-16T12:43:01;90580.00;;;19.96;83.03
6395;BME280;3230;42.588;23.358;2023-05-16T12:45:27;90576.09;;;20.22;80.38
6395;BME280;3230;42.588;23.358;2023-05-16T12:47:52;90579.78;;;20.33;79.44
6395;BME280;3230;42.588;23.358;2023-05-16T12:50:18;90601.50;;;20.35;79.12
6395;BME280;3230;42.588;23.358;2023-05-16T12:52:50;90597.66;;;20.33;80.42
6395;BME280;3230;42.588;23.358;2023-05-16T12:55:17;90582.34;;;20.29;80.07
6395;BME280;3230;42.588;23.358;2023-05-16T12:57:44;90595.41;;;20.03;79.43
6395;BME280;3230;42.588;23.358;2023-05-16T13:00:11;90576.59;;;19.95;83.55
6395;BME280;3230;42.588;23.358;2023-05-16T13:02:37;90584.03;;;19.90;81.51
6395;BME280;3230;42.588;23.358;2023-05-16T13:05:03;90589.63;;;19.85;82.82
6395;BME280;3230;42.588;23.358;2023-05-16T13:07:28;90589.31;;;19.74;83.85
6395;BME280;3230;42.588;23.358;2023-05-16T13:09:55;90582.34;;;19.97;81.34
6395;BME280;3230;42.588;23.358;2023-05-16T13:12:20;90584.34;;;20.33;79.81
6395;BME280;3230;42.588;23.358;2023-05-16T13:14:50;90591.88;;;20.47;79.45
6395;BME280;3230;42.588;23.358;2023-05-16T13:17:16;90579.59;;;20.42;80.28
6395;BME280;3230;42.588;23.358;2023-05-16T13:19:41;90569.47;;;20.48;80.23
6395;BME280;3230;42.588;23.358;2023-05-16T13:22:07;90577.03;;;20.45;80.54
6395;BME280;3230;42.588;23.358;2023-05-16T13:24:32;90575.31;;;20.21;82.52
6395;BME280;3230;42.588;23.358;2023-05-16T13:26:58;90579.34;;;20.31;82.93
6395;BME280;3230;42.588;23.358;2023-05-16T13:29:24;90582.34;;;20.29;80.78